createdAt,value
2018-12-05T00:02:00.302Z,7.30
2018-12-05T00:05:03.940Z,7.08
2018-12-05T00:08:07.529Z,7.80
2018-12-05T00:11:11.064Z,7.37
2018-12-05T00:14:14.679Z,6.67
2018-12-05T00:17:18.145Z,7.20
2018-12-05T00:20:21.828Z,7.03
2018-12-05T00:23:26.174Z,7.30
2018-12-05T00:26:29.864Z,6.93
2018-12-05T00:29:33.498Z,7.43
2018-12-05T00:32:37.017Z,7.00
2018-12-05T00:35:40.542Z,7.40
2018-12-05T00:38:44.044Z,7.33
2018-12-05T00:41:47.638Z,7.20
2018-12-05T00:44:52.649Z,8.05
2018-12-05T00:47:57.002Z,8.77
2018-12-05T00:51:00.586Z,7.92
2018-12-05T00:54:04.218Z,8.37
2018-12-05T00:57:07.831Z,8.48
2018-12-05T01:00:11.497Z,8.20
2018-12-05T01:03:15.092Z,8.93
2018-12-05T01:06:19.611Z,10.13
2018-12-05T01:09:23.284Z,9.53
2018-12-05T01:12:26.799Z,10.43
2018-12-05T01:15:30.326Z,9.90
2018-12-05T01:18:33.808Z,10.20
2018-12-05T01:21:37.343Z,8.93
2018-12-05T01:24:40.976Z,8.70
2018-12-05T01:27:44.503Z,8.60
2018-12-05T01:30:48.298Z,9.43
2018-12-05T01:39:26.058Z,10.13
2018-12-05T01:42:29.694Z,10.20
2018-12-05T01:45:33.267Z,10.30
2018-12-05T01:48:36.923Z,10.13
2018-12-05T01:51:40.508Z,12.47
2018-12-05T01:54:44.054Z,11.70
2018-12-05T01:57:47.582Z,12.10
2018-12-05T02:00:53.014Z,11.97
2018-12-05T02:03:56.464Z,12.20
2018-12-05T02:07:06.782Z,12.65
2018-12-05T02:10:10.630Z,13.40
2018-12-05T02:13:14.110Z,12.00
2018-12-05T02:16:17.672Z,12.10
2018-12-05T02:19:21.958Z,11.43
2018-12-05T02:22:25.425Z,11.60
2018-12-05T02:25:28.918Z,10.87
2018-12-05T02:28:32.475Z,11.70
2018-12-05T02:31:36.077Z,13.45
2018-12-05T02:34:39.717Z,12.60
2018-12-05T02:37:43.259Z,12.90
2018-12-05T02:40:47.152Z,12.53
2018-12-05T02:43:50.845Z,12.17
2018-12-05T02:46:54.451Z,12.03
2018-12-05T02:49:57.921Z,12.57
2018-12-05T02:53:01.659Z,13.23
2018-12-05T02:56:05.242Z,12.13
2018-12-05T02:59:08.725Z,11.97
2018-12-05T03:02:12.364Z,12.63
2018-12-05T03:05:16.127Z,12.28
2018-12-05T03:08:19.686Z,11.63
2018-12-05T03:11:23.137Z,12.33
2018-12-05T03:14:26.662Z,12.13
2018-12-05T03:17:30.229Z,12.17
2018-12-05T03:20:33.703Z,12.33
2018-12-05T03:23:37.189Z,13.17
2018-12-05T03:26:40.727Z,13.87
2018-12-05T03:29:44.224Z,12.60
2018-12-05T03:32:47.773Z,12.03
2018-12-05T03:40:51.544Z,21.48
2018-12-05T03:43:55.116Z,16.17
2018-12-05T03:46:58.588Z,14.58
2018-12-05T03:50:02.465Z,13.62
2018-12-05T03:53:06.058Z,13.30
2018-12-05T03:56:09.566Z,13.30
2018-12-05T03:59:13.163Z,13.10
2018-12-05T04:02:16.624Z,12.37
2018-12-05T04:05:20.188Z,13.37
2018-12-05T04:08:23.733Z,13.60
2018-12-05T04:11:27.344Z,12.53
2018-12-05T04:14:30.880Z,11.47
2018-12-05T04:17:34.534Z,12.30
2018-12-05T04:20:37.994Z,11.70
2018-12-05T04:23:41.640Z,12.27
2018-12-05T04:26:45.138Z,12.73
2018-12-05T04:29:48.674Z,11.90
2018-12-05T04:32:53.184Z,12.82
2018-12-05T04:35:56.709Z,12.77
2018-12-05T04:39:00.290Z,11.25
2018-12-05T04:42:03.804Z,11.70
2018-12-05T04:45:07.558Z,11.87
2018-12-05T04:48:10.998Z,13.00
2018-12-05T04:51:14.535Z,11.80
2018-12-05T04:54:18.001Z,12.73
2018-12-05T04:57:22.318Z,12.58
2018-12-05T05:00:25.797Z,12.83
2018-12-05T05:03:29.284Z,12.55
2018-12-05T05:06:32.773Z,12.40
2018-12-05T05:09:36.274Z,13.22
2018-12-05T05:12:39.779Z,13.40
2018-12-05T05:15:43.312Z,11.43
2018-12-05T05:18:46.849Z,12.53
2018-12-05T05:21:50.524Z,13.60
2018-12-05T05:24:54.043Z,12.17
2018-12-05T05:27:57.558Z,11.77
2018-12-05T05:31:01.046Z,11.30
2018-12-05T05:34:04.605Z,12.73
2018-12-05T05:37:08.082Z,11.80
2018-12-05T05:40:11.845Z,11.43
2018-12-05T05:43:15.399Z,11.63
2018-12-05T05:46:18.988Z,12.20
2018-12-05T05:49:22.535Z,11.10
2018-12-05T05:52:26.310Z,11.07
2018-12-05T05:55:29.843Z,10.83
2018-12-05T05:58:33.394Z,11.40
2018-12-05T06:01:36.923Z,10.67
2018-12-05T06:04:40.445Z,12.10
2018-12-05T06:07:44.145Z,11.17
2018-12-05T06:10:47.645Z,11.08
2018-12-05T06:13:51.184Z,11.10
2018-12-05T06:16:54.643Z,11.50
2018-12-05T06:19:58.223Z,10.93
2018-12-05T06:23:01.793Z,11.33
2018-12-05T06:26:05.324Z,11.00
2018-12-05T06:29:08.839Z,11.70
2018-12-05T06:32:12.350Z,10.53
2018-12-05T06:35:15.845Z,10.93
2018-12-05T06:38:19.308Z,12.97
2018-12-05T06:41:22.913Z,10.87
2018-12-05T06:44:26.560Z,10.20
2018-12-05T06:47:30.058Z,9.87
2018-12-05T06:50:33.585Z,10.43
2018-12-05T06:53:37.258Z,9.90
2018-12-05T06:56:40.904Z,10.72
2018-12-05T06:59:44.464Z,9.40
2018-12-05T07:02:48.179Z,9.23
2018-12-05T07:05:51.713Z,9.67
2018-12-05T07:08:55.284Z,9.77
2018-12-05T07:11:58.780Z,9.35
2018-12-05T07:15:02.329Z,9.88
2018-12-05T07:18:12.258Z,8.90
2018-12-05T07:21:15.837Z,9.45
2018-12-05T07:24:19.395Z,9.20
2018-12-05T07:27:23.332Z,9.85
2018-12-05T07:30:29.619Z,10.00
2018-12-05T07:33:32.404Z,10.03
2018-12-05T07:36:35.929Z,10.00
2018-12-05T07:39:39.393Z,8.93
2018-12-05T07:42:43.554Z,8.30
2018-12-05T07:45:47.170Z,9.30
2018-12-05T07:48:50.684Z,9.97
2018-12-05T07:51:54.258Z,9.50
2018-12-05T07:54:57.751Z,8.60
2018-12-05T07:58:01.268Z,9.07
2018-12-05T08:01:04.775Z,8.98
2018-12-05T08:04:08.311Z,9.80
2018-12-05T08:07:11.807Z,9.07
2018-12-05T08:10:15.399Z,8.97
2018-12-05T08:13:18.901Z,9.40
2018-12-05T08:16:23.087Z,8.70
2018-12-05T08:19:26.763Z,8.70
2018-12-05T08:22:30.224Z,9.53
2018-12-05T08:25:33.722Z,9.30
2018-12-05T08:28:37.177Z,8.77
2018-12-05T08:31:40.984Z,9.73
2018-12-05T08:34:44.464Z,9.10
2018-12-05T08:37:48.014Z,10.30
2018-12-05T08:40:51.497Z,8.80
2018-12-05T08:43:55.001Z,8.80
2018-12-05T08:46:58.626Z,9.73
2018-12-05T08:50:02.327Z,8.20
2018-12-05T08:53:05.993Z,8.93
2018-12-05T08:56:09.817Z,9.13
2018-12-05T08:59:13.392Z,9.30
2018-12-05T09:02:16.924Z,9.23
2018-12-05T09:05:20.682Z,9.73
2018-12-05T09:08:24.217Z,8.78
2018-12-05T09:11:27.723Z,8.60
2018-12-05T09:14:31.324Z,9.40
2018-12-05T09:17:34.819Z,8.87
2018-12-05T09:20:38.271Z,9.93
2018-12-05T09:23:41.825Z,9.60
2018-12-05T09:26:45.393Z,8.10
2018-12-05T09:29:48.938Z,8.63
2018-12-05T09:38:26.351Z,9.00
2018-12-05T09:41:29.824Z,8.33
2018-12-05T09:44:33.379Z,8.60
2018-12-05T09:47:36.913Z,8.50
2018-12-05T09:50:40.403Z,8.17
2018-12-05T09:53:43.933Z,8.23
2018-12-05T09:56:47.454Z,8.23
2018-12-05T09:59:52.084Z,9.13
2018-12-05T10:02:55.739Z,8.20
2018-12-05T10:05:59.387Z,8.03
2018-12-05T10:09:04.067Z,8.10
2018-12-05T10:12:07.583Z,10.10
2018-12-05T10:15:11.332Z,8.73
2018-12-05T10:18:14.978Z,8.10
2018-12-05T10:21:18.533Z,7.00
2018-12-05T10:24:21.989Z,7.40
2018-12-05T10:27:25.568Z,7.83
2018-12-05T10:30:29.082Z,7.97
2018-12-05T10:33:32.793Z,7.80
2018-12-05T10:36:36.551Z,7.40
2018-12-05T10:39:40.038Z,7.33
2018-12-05T10:42:43.464Z,7.47
2018-12-05T10:45:47.127Z,7.30
2018-12-05T10:48:50.653Z,7.58
2018-12-05T10:51:54.791Z,7.90
2018-12-05T10:54:58.341Z,6.60
2018-12-05T10:58:02.153Z,8.65
2018-12-05T11:01:10.988Z,7.33
2018-12-05T11:04:20.971Z,6.50
2018-12-05T11:07:29.877Z,6.30
2018-12-05T11:10:38.721Z,6.87
2018-12-05T11:13:47.482Z,7.20
2018-12-05T11:16:57.276Z,6.93
2018-12-05T11:20:06.098Z,6.58
2018-12-05T11:23:14.616Z,6.28
2018-12-05T11:26:21.781Z,6.33
2018-12-05T11:29:25.456Z,7.53
2018-12-05T11:32:28.930Z,6.17
2018-12-05T11:35:32.525Z,6.03
2018-12-05T11:38:36.187Z,7.13
2018-12-05T11:41:39.707Z,6.37
2018-12-05T11:44:43.390Z,6.80
2018-12-05T11:47:47.115Z,6.30
2018-12-05T11:50:50.697Z,7.30
2018-12-05T11:53:55.137Z,6.28
2018-12-05T11:56:58.738Z,7.00
2018-12-05T12:00:02.245Z,7.83
2018-12-05T12:03:06.142Z,6.80
2018-12-05T12:06:09.632Z,6.90
2018-12-05T12:09:13.398Z,6.13
2018-12-05T12:12:22.272Z,5.95
2018-12-05T12:15:25.832Z,5.83
2018-12-05T12:18:29.346Z,7.27
2018-12-05T12:21:32.834Z,6.90
2018-12-05T12:24:36.488Z,5.80
2018-12-05T12:27:39.930Z,6.33
2018-12-05T12:30:43.352Z,6.30
2018-12-05T12:33:46.924Z,6.70
2018-12-05T12:36:50.426Z,5.70
2018-12-05T12:39:55.360Z,5.40
2018-12-05T12:42:58.907Z,5.67
2018-12-05T12:46:02.447Z,5.37
2018-12-05T12:49:06.020Z,5.67
2018-12-05T12:52:09.582Z,5.58
2018-12-05T12:55:13.135Z,4.57
2018-12-05T12:58:16.619Z,5.27
2018-12-05T13:01:20.160Z,4.97
2018-12-05T13:04:24.428Z,5.10
2018-12-05T13:07:27.906Z,5.03
2018-12-05T13:10:31.466Z,4.63
2018-12-05T13:13:34.943Z,4.83
2018-12-05T13:16:38.719Z,4.67
2018-12-05T13:19:42.193Z,3.80
2018-12-05T13:22:45.786Z,4.03
2018-12-05T13:25:49.281Z,4.17
2018-12-05T13:28:52.751Z,4.60
2018-12-05T13:31:56.221Z,4.20
2018-12-05T13:34:59.736Z,4.23
2018-12-05T13:38:03.385Z,4.73
2018-12-05T13:41:21.477Z,4.72
2018-12-05T13:44:25.305Z,4.03
2018-12-05T13:47:28.807Z,3.57
2018-12-05T13:50:32.323Z,3.60
2018-12-05T13:53:35.838Z,3.83
2018-12-05T13:56:40.103Z,4.15
2018-12-05T13:59:43.683Z,3.30
2018-12-05T14:02:47.308Z,3.67
2018-12-05T14:05:50.868Z,4.40
2018-12-05T14:08:55.330Z,4.50
2018-12-05T14:11:58.843Z,3.33
2018-12-05T14:15:02.336Z,3.30
2018-12-05T14:18:05.783Z,4.10
2018-12-05T14:21:09.272Z,3.40
2018-12-05T14:24:12.937Z,3.27
2018-12-05T14:27:16.603Z,3.60
2018-12-05T14:30:20.179Z,3.53
2018-12-05T14:33:24.662Z,3.97
2018-12-05T14:36:28.257Z,3.80
2018-12-05T14:39:31.954Z,3.83
2018-12-05T14:42:35.484Z,3.77
2018-12-05T14:45:39.129Z,3.30
2018-12-05T14:48:42.647Z,3.40
2018-12-05T14:51:46.220Z,4.70
2018-12-05T14:54:49.729Z,4.00
2018-12-05T14:57:53.372Z,3.60
2018-12-05T15:00:56.842Z,4.17
2018-12-05T15:04:00.554Z,4.63
2018-12-05T15:07:04.125Z,3.70
2018-12-05T15:10:08.042Z,3.97
2018-12-05T15:13:11.597Z,3.77
2018-12-05T15:16:15.157Z,4.07
2018-12-05T15:19:18.735Z,3.50
2018-12-05T15:22:23.203Z,3.90
2018-12-05T15:25:26.926Z,4.33
2018-12-05T15:28:30.582Z,5.10
2018-12-05T15:31:34.099Z,3.90
2018-12-05T15:34:37.603Z,4.30
2018-12-05T15:37:41.179Z,3.70
2018-12-05T15:40:44.660Z,5.60
2018-12-05T15:43:48.172Z,4.50
2018-12-05T15:46:51.673Z,3.83
2018-12-05T15:49:56.847Z,4.37
2018-12-05T15:53:00.442Z,4.60
2018-12-05T15:56:03.959Z,4.40
2018-12-05T15:59:07.509Z,4.20
2018-12-05T16:02:11.168Z,4.62
2018-12-05T16:05:14.975Z,4.22
2018-12-05T16:08:18.428Z,4.73
2018-12-05T16:11:22.004Z,4.37
2018-12-05T16:14:25.504Z,4.47
2018-12-05T16:17:29.190Z,6.50
2018-12-05T16:20:32.755Z,4.67
2018-12-05T16:23:36.294Z,4.63
2018-12-05T16:26:40.027Z,3.60
2018-12-05T16:29:43.453Z,3.87
2018-12-05T16:32:47.018Z,4.20
2018-12-05T16:35:50.582Z,4.50
2018-12-05T16:44:46.128Z,3.40
2018-12-05T16:47:49.709Z,4.57
2018-12-05T16:50:53.213Z,3.90
2018-12-05T16:53:56.764Z,3.87
2018-12-05T16:57:00.270Z,4.62
2018-12-05T17:00:04.180Z,4.63
2018-12-05T17:03:07.855Z,4.50
2018-12-05T17:06:11.398Z,4.67
2018-12-05T17:09:14.874Z,4.47
2018-12-05T17:12:18.456Z,5.90
2018-12-05T17:15:21.934Z,5.93
2018-12-05T17:18:25.893Z,6.15
2018-12-05T17:21:29.537Z,4.40
2018-12-05T17:24:33.051Z,5.10
2018-12-05T17:27:36.583Z,6.20
2018-12-05T17:30:40.064Z,5.10
2018-12-05T17:33:43.551Z,5.27
2018-12-05T17:36:47.060Z,5.80
2018-12-05T17:39:50.567Z,6.33
2018-12-05T17:42:54.142Z,4.80
2018-12-05T17:45:57.764Z,5.43
2018-12-05T17:49:01.281Z,5.15
2018-12-05T17:52:04.978Z,5.40
2018-12-05T17:55:08.493Z,6.12
2018-12-05T17:58:20.000Z,5.60
2018-12-05T18:01:23.446Z,5.83
2018-12-05T18:04:27.024Z,5.13
2018-12-05T18:07:30.601Z,5.27
2018-12-05T18:10:34.109Z,5.33
2018-12-05T18:13:37.645Z,5.13
2018-12-05T18:16:41.166Z,5.00
2018-12-05T18:19:44.916Z,6.10
2018-12-05T18:22:48.410Z,5.30
2018-12-05T18:25:51.939Z,5.73
2018-12-05T18:34:28.710Z,6.23
2018-12-05T18:37:32.260Z,5.55
2018-12-05T18:40:35.790Z,5.93
2018-12-05T18:43:39.465Z,6.17
2018-12-05T18:46:43.015Z,6.30
2018-12-05T18:49:46.489Z,5.40
2018-12-05T18:52:50.200Z,5.83
2018-12-05T18:55:53.735Z,6.97
2018-12-05T18:58:57.284Z,6.10
2018-12-05T19:02:00.854Z,7.00
2018-12-05T19:05:04.919Z,6.47
2018-12-05T19:08:09.050Z,6.33
2018-12-05T19:11:12.774Z,7.62
2018-12-05T19:14:21.554Z,7.10
2018-12-05T19:17:25.109Z,6.40
2018-12-05T19:20:28.813Z,7.13
2018-12-05T19:23:32.323Z,7.15
2018-12-05T19:26:35.760Z,6.87
2018-12-05T19:29:39.267Z,8.05
2018-12-05T19:32:42.736Z,7.50
2018-12-05T19:35:46.258Z,7.40
2018-12-05T19:38:49.962Z,6.70
2018-12-05T19:41:54.078Z,7.93
2018-12-05T19:44:57.587Z,7.67
2018-12-05T19:48:01.138Z,7.37
2018-12-05T19:51:04.817Z,7.77
2018-12-05T19:54:08.514Z,7.50
2018-12-05T19:57:12.054Z,8.48
2018-12-05T20:00:15.552Z,7.30
2018-12-05T20:03:19.089Z,8.37
2018-12-05T20:06:25.634Z,8.37
2018-12-05T20:09:29.179Z,7.80
2018-12-05T20:12:32.747Z,8.03
2018-12-05T20:15:36.253Z,7.85
2018-12-05T20:18:39.798Z,8.07
2018-12-05T20:21:43.343Z,8.10
2018-12-05T20:24:46.833Z,7.87
2018-12-05T20:27:50.388Z,8.50
2018-12-05T20:30:53.887Z,8.50
2018-12-05T20:33:57.500Z,8.60
2018-12-05T20:37:00.956Z,8.33
2018-12-05T20:40:05.453Z,8.50
2018-12-05T20:43:09.089Z,8.88
2018-12-05T20:46:12.629Z,9.90
2018-12-05T20:49:16.088Z,8.50
2018-12-05T20:52:19.628Z,9.37
2018-12-05T20:55:23.078Z,9.50
2018-12-05T20:58:26.595Z,8.68
2018-12-05T21:01:30.350Z,8.53
2018-12-05T21:04:33.921Z,9.13
2018-12-05T21:07:37.453Z,10.00
2018-12-05T21:10:41.020Z,9.43
2018-12-05T21:13:44.720Z,10.25
2018-12-05T21:16:48.221Z,9.60
2018-12-05T21:19:51.808Z,9.17
2018-12-05T21:22:55.350Z,10.33
2018-12-05T21:25:59.023Z,10.37
2018-12-05T21:29:02.505Z,9.30
2018-12-05T21:32:06.205Z,10.10
2018-12-05T21:35:09.740Z,10.17
2018-12-05T21:38:13.234Z,9.83
2018-12-05T21:41:16.736Z,10.53
2018-12-05T21:44:20.314Z,10.07
2018-12-05T21:47:23.760Z,9.90
2018-12-05T21:50:27.290Z,9.77
2018-12-05T21:53:31.020Z,9.83
2018-12-05T21:56:34.500Z,9.70
2018-12-05T21:59:38.010Z,9.80
2018-12-05T22:02:41.428Z,9.80
2018-12-05T22:05:44.969Z,10.50
2018-12-05T22:08:48.474Z,9.30
2018-12-05T22:11:52.078Z,10.47
2018-12-05T22:14:55.780Z,10.10
2018-12-05T22:17:59.243Z,11.47
2018-12-05T22:21:09.420Z,11.13
2018-12-05T22:24:13.035Z,10.23
2018-12-05T22:27:16.597Z,11.10
2018-12-05T22:30:20.140Z,10.40
2018-12-05T22:33:23.670Z,12.20
2018-12-05T22:36:27.302Z,10.90
2018-12-05T22:39:30.779Z,10.73
2018-12-05T22:42:34.223Z,10.53
2018-12-05T22:45:37.794Z,10.35
2018-12-05T22:48:41.279Z,11.80
2018-12-05T22:51:44.763Z,10.93
2018-12-05T22:54:48.288Z,11.87
2018-12-05T22:57:51.804Z,11.48
2018-12-05T23:00:58.295Z,10.93
2018-12-05T23:04:01.822Z,11.50
2018-12-05T23:07:05.530Z,11.03
2018-12-05T23:10:09.167Z,11.50
2018-12-05T23:13:12.689Z,12.37
2018-12-05T23:16:16.164Z,12.03
2018-12-05T23:19:19.922Z,11.57
2018-12-05T23:22:23.646Z,11.80
2018-12-05T23:25:27.147Z,12.07
2018-12-05T23:28:30.680Z,12.17
2018-12-05T23:31:34.184Z,11.43
2018-12-05T23:34:37.745Z,12.00
2018-12-05T23:37:41.240Z,12.27
2018-12-05T23:40:44.858Z,12.47
2018-12-05T23:43:48.408Z,12.10
2018-12-05T23:46:52.030Z,11.60
2018-12-05T23:49:55.540Z,12.30
2018-12-05T23:52:59.120Z,12.83
2018-12-05T23:56:02.583Z,13.10
2018-12-05T23:59:06.063Z,12.70
